Pagrindinis puslapis
METAR-TAF:

METAR-TAF

Oro uostai :

Mesina, Italija

platuma: 38-12N, ilguma: 015-33E, Aukštis: 59 m

Dabartinis oras

Ataskaita buvo paskelbta 38 minutes, ne 18:55 UTC
Vėjas 4 kt iš Pietvakarių
Temperatūra 18°C
Drėgmė 94%
Slėgis 1014 hPa
Matomumas 10 km arba daugiau
Išsisklaidę debesys ne aukštis 1500 ft
Išsisklaidę debesys ne aukštis 3000 ft

METAR: LICF 301855Z 23004KT 9999 SCT015 SCT030 18/17 Q1014 RMK BKN QUK / QUL / VIS MAR 14 KM MON INVIS VAR RAPID VIS MIN 9999

Laikas: 21:33 (19:33 UTC)


TAF: trūkstamas

Orai ataskaitas ir orų prognozės (METAR, TAF).

turimą stotys yra geltonos ir raudonos taškus žemėlapyje.

Perkelti pele per norėdami pamatyti stoties vardą.

Tada spustelėkite, norėdami matyti oro stebėjimo ir prognozės.

Norėdami pakeisti žemėlapį: spustelėkite ant žalios mygtukų su juodo kryžiaus žemyn,; žalią mygtuką su brūkšneliu, jei norite nutolinti; arba žalių rodyklių gretimoms žemėlapius.


METAR-TAF: